Time;durP1;ratioP1;P1;durP2;ratioP2;P2;SDS_P1;SDS_P2;PMS_P1;PMS_P2;Temp;Humidity;BMP_temperature;BMP_pressure;BME280_temperature;BME280_humidity;BME280_pressure;Samples;Min_cycle;Max_cycle;Signal;HPM_P1;HPM_P2
2021/10/30 00:00:08;;;;;;;58.63;40.08;;;;;;;9.78;83.62;100171.69;5014456;28;20042;-84
2021/10/30 00:02:35;;;;;;;58.72;41.10;;;;;;;9.42;85.76;100175.94;5013666;28;20481;-84
2021/10/30 00:05:04;;;;;;;58.50;40.83;;;;;;;9.36;85.48;100173.63;5014462;28;20074;-84
2021/10/30 00:07:31;;;;;;;59.58;39.28;;;;;;;9.86;82.96;100178.22;5013718;28;20112;-85
2021/10/30 00:09:57;;;;;;;56.60;41.47;;;;;;;9.84;82.37;100179.19;5014275;28;20049;-85
2021/10/30 00:12:25;;;;;;;53.47;37.42;;;;;;;9.52;84.38;100175.53;5013815;28;20049;-85
2021/10/30 00:14:51;;;;;;;62.65;39.05;;;;;;;9.61;84.67;100172.50;5012876;28;20037;-85
2021/10/30 00:17:18;;;;;;;58.35;38.55;;;;;;;9.55;84.51;100173.63;5012568;28;20046;-85
2021/10/30 00:19:45;;;;;;;57.78;37.88;;;;;;;9.44;85.09;100166.31;5013902;28;20034;-85
2021/10/30 00:22:11;;;;;;;53.13;37.00;;;;;;;9.53;85.00;100159.81;5014077;28;20049;-85
2021/10/30 00:24:38;;;;;;;54.80;37.47;;;;;;;9.43;85.32;100149.03;5011283;28;20096;-84
2021/10/30 00:27:06;;;;;;;53.65;38.42;;;;;;;9.57;84.58;100144.91;4997716;28;20039;-83
2021/10/30 00:29:32;;;;;;;55.13;38.45;;;;;;;9.48;85.71;100140.16;5009927;28;20052;-83
2021/10/30 00:31:59;;;;;;;53.95;38.28;;;;;;;9.37;85.66;100128.47;5013068;28;20072;-83
2021/10/30 00:34:26;;;;;;;53.33;36.45;;;;;;;9.45;84.98;100135.94;5007357;28;20042;-83
2021/10/30 00:36:53;;;;;;;52.33;37.53;;;;;;;9.44;84.47;100134.25;5014192;28;20096;-83
2021/10/30 00:39:20;;;;;;;51.80;37.45;;;;;;;9.43;85.07;100135.19;5013104;28;20072;-85
2021/10/30 00:41:47;;;;;;;56.92;38.17;;;;;;;9.27;85.77;100134.19;5013063;28;20041;-85
2021/10/30 00:44:15;;;;;;;45.50;34.88;;;;;;;9.06;86.39;100133.44;5009987;28;20034;-85
2021/10/30 00:46:45;;;;;;;64.15;35.20;;;;;;;9.19;87.04;100139.75;5013032;28;20061;-85
2021/10/30 00:49:14;;;;;;;54.95;39.42;;;;;;;9.19;86.89;100131.94;5012817;28;20045;-83
2021/10/30 00:51:44;;;;;;;49.92;35.25;;;;;;;9.29;86.20;100124.56;5019274;28;20041;-83
2021/10/30 00:54:15;;;;;;;43.63;33.38;;;;;;;9.43;85.77;100130.81;5013343;28;20049;-83
2021/10/30 00:56:42;;;;;;;49.33;34.65;;;;;;;9.23;86.34;100119.66;5012732;28;20388;-83
2021/10/30 00:59:12;;;;;;;44.63;33.63;;;;;;;9.30;85.70;100114.09;5012941;28;20042;-83
2021/10/30 01:01:40;;;;;;;43.15;31.50;;;;;;;9.51;84.28;100111.38;5020485;28;20033;-84
2021/10/30 01:04:08;;;;;;;47.90;33.78;;;;;;;9.44;84.63;100116.06;5013719;28;20041;-84
2021/10/30 01:06:38;;;;;;;45.03;29.92;;;;;;;9.18;85.76;100114.66;5012860;28;20100;-83
2021/10/30 01:09:05;;;;;;;49.90;34.28;;;;;;;8.96;87.01;100114.81;5012839;28;20054;-83
2021/10/30 01:11:32;;;;;;;47.85;34.00;;;;;;;8.95;87.89;100110.53;5012448;28;20507;-83
2021/10/30 01:14:01;;;;;;;49.92;33.65;;;;;;;9.12;87.05;100102.78;5012876;28;20440;-83
2021/10/30 01:16:28;;;;;;;47.47;34.75;;;;;;;9.10;87.07;100106.34;5012573;28;20046;-83
2021/10/30 01:18:56;;;;;;;46.05;32.83;;;;;;;8.92;87.20;100101.09;5012688;28;20116;-84
2021/10/30 01:21:25;;;;;;;52.45;35.17;;;;;;;9.21;85.40;100095.47;4999346;28;20096;-82
2021/10/30 01:23:53;;;;;;;48.67;32.97;;;;;;;8.98;86.46;100102.56;5012347;28;20042;-83
2021/10/30 01:26:23;;;;;;;49.78;35.60;;;;;;;8.97;87.27;100107.84;5012529;28;20060;-83
2021/10/30 01:28:50;;;;;;;54.90;35.75;;;;;;;9.11;85.98;100100.28;4994946;28;20042;-83
2021/10/30 01:31:20;;;;;;;51.92;34.20;;;;;;;8.96;86.57;100100.97;5012470;28;20429;-83
2021/10/30 01:33:51;;;;;;;51.20;35.30;;;;;;;9.04;86.76;100106.66;5012109;28;20042;-82
2021/10/30 01:36:20;;;;;;;51.28;35.55;;;;;;;9.08;86.71;100097.78;5012430;28;20042;-83
2021/10/30 01:38:48;;;;;;;57.45;39.17;;;;;;;9.20;86.52;100094.63;5011988;28;20074;-83
2021/10/30 01:41:16;;;;;;;56.28;38.70;;;;;;;9.23;86.51;100094.50;5012689;28;20046;-83
2021/10/30 01:43:43;;;;;;;57.45;39.75;;;;;;;9.23;86.37;100085.84;5011956;28;20068;-83
2021/10/30 01:46:11;;;;;;;63.17;42.90;;;;;;;9.14;86.95;100087.09;5011756;28;20455;-83
2021/10/30 01:48:38;;;;;;;55.47;38.75;;;;;;;8.93;87.91;100089.78;5012122;28;20468;-82
2021/10/30 01:51:07;;;;;;;53.60;39.00;;;;;;;9.00;87.43;100076.50;5012208;28;20045;-85
2021/10/30 01:53:35;;;;;;;64.38;41.20;;;;;;;9.02;86.70;100079.88;5012428;28;20046;-85
2021/10/30 01:56:03;;;;;;;57.63;40.75;;;;;;;8.96;87.12;100077.56;5011953;28;20042;-84
2021/10/30 01:58:31;;;;;;;56.55;38.92;;;;;;;8.93;87.64;100081.13;5012304;28;20042;-84
2021/10/30 02:01:00;;;;;;;56.08;40.13;;;;;;;9.01;87.65;100078.19;5012000;28;20088;-84
2021/10/30 02:03:30;;;;;;;61.58;45.35;;;;;;;8.78;88.54;100082.66;5012749;28;20049;-84
2021/10/30 02:05:58;;;;;;;57.25;41.35;;;;;;;8.81;88.25;100082.53;5011950;28;20092;-83
2021/10/30 02:08:25;;;;;;;60.33;42.42;;;;;;;8.84;88.14;100085.03;5012081;28;20042;-83
2021/10/30 02:10:52;;;;;;;54.70;41.22;;;;;;;9.01;86.98;100091.19;5011874;28;20046;-80
2021/10/30 02:13:19;;;;;;;55.72;39.90;;;;;;;8.96;87.26;100087.97;5011970;28;20488;-80
2021/10/30 02:15:48;;;;;;;61.00;44.45;;;;;;;8.79;88.73;100083.50;5012207;28;20057;-82
2021/10/30 02:18:15;;;;;;;55.90;41.58;;;;;;;8.48;90.26;100090.09;5012086;28;20100;-83
2021/10/30 02:20:42;;;;;;;62.38;40.25;;;;;;;8.68;89.72;100086.59;5011865;28;20457;-83
2021/10/30 02:23:09;;;;;;;59.58;41.10;;;;;;;8.56;91.11;100092.34;5011792;28;20096;-82
2021/10/30 02:25:36;;;;;;;60.85;41.33;;;;;;;8.30;92.63;100094.28;5011551;28;20034;-82
2021/10/30 02:28:03;;;;;;;62.78;38.13;;;;;;;8.55;91.83;100101.91;5011576;28;20104;-80
2021/10/30 02:30:35;;;;;;;54.60;40.08;;;;;;;8.77;89.82;100093.16;5011778;28;20046;-82
2021/10/30 02:33:01;;;;;;;61.15;41.08;;;;;;;8.69;90.60;100101.28;5011502;28;20092;-84
2021/10/30 02:35:28;;;;;;;60.53;40.33;;;;;;;8.75;90.03;100114.00;5011876;28;20377;-85
2021/10/30 02:37:55;;;;;;;54.78;38.58;;;;;;;8.81;90.18;100108.53;5011939;28;20042;-85
2021/10/30 02:40:22;;;;;;;56.75;39.38;;;;;;;8.75;90.63;100107.97;5012212;28;20088;-85
2021/10/30 02:42:48;;;;;;;51.38;38.33;;;;;;;8.82;89.84;100110.22;5011884;28;20041;-83
2021/10/30 02:45:15;;;;;;;56.78;38.20;;;;;;;8.75;89.29;100111.41;5012004;28;20133;-82
2021/10/30 02:47:42;;;;;;;57.92;35.38;;;;;;;8.70;89.92;100118.56;5011617;28;20039;-82
2021/10/30 02:50:09;;;;;;;58.88;38.45;;;;;;;8.90;89.47;100115.94;5011236;28;20038;-82
2021/10/30 02:52:39;;;;;;;50.20;37.33;;;;;;;8.77;90.05;100117.38;5011746;28;20046;-83
2021/10/30 02:55:06;;;;;;;53.47;35.92;;;;;;;8.76;90.46;100120.91;5011744;28;20053;-83
2021/10/30 02:57:33;;;;;;;51.55;36.45;;;;;;;8.50;92.15;100118.59;5012902;28;20042;-81
2021/10/30 03:00:00;;;;;;;55.85;38.58;;;;;;;9.02;89.60;100116.28;5012580;28;20042;-84
2021/10/30 03:02:27;;;;;;;49.17;34.38;;;;;;;8.74;90.09;100127.94;5014796;28;20048;-83
2021/10/30 03:04:54;;;;;;;50.40;35.13;;;;;;;8.54;91.42;100128.78;5014854;28;20369;-84
2021/10/30 03:07:22;;;;;;;48.22;35.15;;;;;;;8.43;92.69;100131.00;5015391;28;20046;-84
2021/10/30 03:09:51;;;;;;;52.80;36.20;;;;;;;8.44;93.76;100129.25;5015361;28;20050;-84
2021/10/30 03:12:18;;;;;;;44.60;35.55;;;;;;;8.46;93.55;100132.63;5015357;28;20176;-83
2021/10/30 03:14:46;;;;;;;45.80;33.17;;;;;;;8.44;93.10;100124.06;5015304;28;20038;-86
2021/10/30 03:17:13;;;;;;;48.97;33.92;;;;;;;8.70;90.61;100121.16;5014823;28;20045;-86
2021/10/30 03:19:39;;;;;;;60.75;37.78;;;;;;;8.47;90.84;100119.59;5015052;28;20045;-86
2021/10/30 03:22:06;;;;;;;48.67;36.35;;;;;;;8.35;91.99;100125.25;5014722;28;20042;-86
2021/10/30 03:24:33;;;;;;;44.35;33.97;;;;;;;8.52;90.55;100128.03;5015023;28;20042;-85
2021/10/30 03:27:00;;;;;;;47.22;35.80;;;;;;;8.34;91.89;100124.41;5014948;28;20078;-86
2021/10/30 03:29:26;;;;;;;42.33;32.45;;;;;;;8.33;92.39;100127.09;5014731;28;20440;-85
2021/10/30 03:31:53;;;;;;;46.05;35.15;;;;;;;8.30;92.22;100119.41;5014335;28;20477;-85
2021/10/30 03:34:20;;;;;;;53.08;35.10;;;;;;;8.20;91.91;100116.34;5014653;28;20523;-85
2021/10/30 03:36:50;;;;;;;43.17;33.47;;;;;;;8.12;92.78;100123.63;5014624;28;20046;-86
2021/10/30 03:39:17;;;;;;;45.28;35.03;;;;;;;8.14;91.57;100122.66;5014040;28;20155;-86
2021/10/30 03:41:46;;;;;;;51.38;35.88;;;;;;;8.06;92.17;100127.34;5014518;28;20046;-84
2021/10/30 03:44:13;;;;;;;48.63;34.78;;;;;;;8.26;91.47;100128.25;5014200;28;20041;-84
2021/10/30 03:46:39;;;;;;;50.47;36.63;;;;;;;8.22;91.60;100121.50;5014382;28;20046;-85
2021/10/30 03:49:06;;;;;;;50.08;35.45;;;;;;;8.21;92.19;100133.66;5014299;28;20092;-84
2021/10/30 03:51:33;;;;;;;53.42;36.20;;;;;;;7.94;92.24;100124.41;5014555;28;20068;-84
2021/10/30 03:54:00;;;;;;;53.08;36.40;;;;;;;8.15;90.95;100115.72;5014282;28;20108;-83
2021/10/30 03:56:27;;;;;;;50.20;37.50;;;;;;;7.82;92.89;100112.75;5013019;28;20468;-86
2021/10/30 03:58:55;;;;;;;54.10;38.35;;;;;;;7.82;94.45;100107.56;5013910;28;20045;-85
2021/10/30 04:01:22;;;;;;;60.22;40.85;;;;;;;8.05;93.47;100101.44;5014196;28;20034;-88
2021/10/30 04:03:49;;;;;;;61.65;43.20;;;;;;;8.25;92.60;100098.81;5010968;28;20093;-85
2021/10/30 04:06:16;;;;;;;59.13;41.03;;;;;;;8.24;91.72;100089.34;5011028;28;20104;-87
2021/10/30 04:08:44;;;;;;;60.70;45.05;;;;;;;7.91;92.77;100094.22;5002331;28;20047;-86
2021/10/30 04:11:13;;;;;;;64.57;43.75;;;;;;;7.74;94.64;100084.53;5000064;28;20436;-85
2021/10/30 04:13:41;;;;;;;63.30;43.55;;;;;;;7.72;95.14;100082.91;5006308;28;20049;-85
2021/10/30 04:16:07;;;;;;;68.57;45.42;;;;;;;7.64;96.47;100077.19;5000949;28;20519;-85
2021/10/30 04:18:34;;;;;;;58.83;42.13;;;;;;;8.07;92.34;100084.88;5007405;28;20052;-85
2021/10/30 04:21:01;;;;;;;63.53;45.20;;;;;;;7.47;96.53;100083.91;5005809;28;20033;-86
2021/10/30 04:23:28;;;;;;;58.70;40.53;;;;;;;7.24;97.72;100082.19;5003507;28;20057;-87
2021/10/30 04:25:54;;;;;;;58.33;39.85;;;;;;;7.29;98.13;100085.44;5005053;28;20049;-86
2021/10/30 04:28:21;;;;;;;62.85;41.20;;;;;;;7.33;97.55;100092.22;5007161;28;20054;-87
2021/10/30 04:30:48;;;;;;;61.70;44.15;;;;;;;7.44;96.87;100083.16;5003315;28;20081;-87
2021/10/30 04:33:17;;;;;;;69.72;46.83;;;;;;;7.35;98.56;100082.63;5002264;28;20046;-84
2021/10/30 04:35:44;;;;;;;75.28;46.53;;;;;;;7.64;96.04;100074.59;5009218;28;20050;-85
2021/10/30 04:38:10;;;;;;;67.43;45.30;;;;;;;7.59;96.26;100079.97;5008956;28;20550;-84
2021/10/30 04:40:37;;;;;;;69.30;49.20;;;;;;;7.72;95.68;100075.94;5002472;28;20100;-85
2021/10/30 04:43:05;;;;;;;70.32;47.72;;;;;;;7.47;97.84;100080.47;5001946;28;20064;-83
2021/10/30 04:45:32;;;;;;;73.75;49.97;;;;;;;7.44;98.80;100073.63;5009604;28;20066;-85
2021/10/30 04:47:59;;;;;;;74.57;49.72;;;;;;;7.29;99.10;100074.25;5004494;28;20045;-86
2021/10/30 04:50:26;;;;;;;71.05;47.92;;;;;;;7.24;99.73;100087.38;5005697;28;20453;-85
2021/10/30 04:52:53;;;;;;;73.53;50.80;;;;;;;7.27;99.97;100084.69;5003793;28;20058;-86
2021/10/30 04:55:20;;;;;;;80.75;50.17;;;;;;;7.27;100.00;100081.25;5002724;28;20069;-86
2021/10/30 04:57:46;;;;;;;68.22;47.20;;;;;;;7.64;98.48;100075.44;5007828;28;20080;-85
2021/10/30 05:00:13;;;;;;;69.25;49.50;;;;;;;7.54;98.01;100068.94;5006001;28;20038;-85
2021/10/30 05:02:40;;;;;;;66.45;46.58;;;;;;;7.80;96.11;100071.31;5005152;28;20104;-86
2021/10/30 05:05:08;;;;;;;73.85;48.63;;;;;;;7.57;96.28;100059.28;5006474;28;20373;-85
2021/10/30 05:07:34;;;;;;;72.57;47.53;;;;;;;7.24;98.32;100068.38;5007718;28;20041;-86
2021/10/30 05:10:02;;;;;;;60.58;46.78;;;;;;;7.11;100.00;100068.03;5008490;28;20062;-86
2021/10/30 05:12:29;;;;;;;74.70;47.83;;;;;;;7.20;100.00;100066.84;5010206;28;20050;-83
2021/10/30 05:14:56;;;;;;;68.10;46.95;;;;;;;7.43;98.46;100071.94;5007891;28;20488;-85
2021/10/30 05:17:23;;;;;;;65.90;46.53;;;;;;;7.21;99.71;100084.91;5006151;28;20030;-84
2021/10/30 05:19:50;;;;;;;71.68;47.08;;;;;;;7.12;100.00;100089.59;5010023;28;20046;-86
2021/10/30 05:22:17;;;;;;;70.95;47.40;;;;;;;7.17;100.00;100082.50;5010204;28;20042;-86
2021/10/30 05:24:44;;;;;;;70.90;50.15;;;;;;;7.29;99.96;100082.84;5008653;28;20385;-84
2021/10/30 05:27:11;;;;;;;67.65;45.35;;;;;;;7.54;98.32;100079.31;5006499;28;20038;-82
2021/10/30 05:29:38;;;;;;;66.97;47.20;;;;;;;7.52;97.89;100084.56;5011585;28;20085;-83
2021/10/30 05:32:05;;;;;;;61.30;43.50;;;;;;;7.48;98.23;100088.19;5007937;28;20049;-82
2021/10/30 05:34:38;;;;;;;61.83;45.22;;;;;;;7.90;96.51;100081.31;5000188;28;20441;-83
2021/10/30 05:37:37;;;;;;;66.75;43.50;;;;;;;7.70;97.41;100082.97;5003942;28;20469;-83
2021/10/30 05:40:07;;;;;;;74.53;51.08;;;;;;;8.03;97.34;100087.66;4997860;28;20050;-83
2021/10/30 05:42:41;;;;;;;79.20;53.55;;;;;;;8.07;96.19;100081.44;5005281;28;20053;-84
2021/10/30 05:45:09;;;;;;;90.00;49.20;;;;;;;8.01;97.23;100084.31;5009500;28;20499;-84
2021/10/30 05:47:37;;;;;;;65.13;45.30;;;;;;;8.05;94.42;100078.91;5006861;28;20481;-83
2021/10/30 05:50:05;;;;;;;58.00;43.10;;;;;;;7.77;95.22;100091.34;5003826;28;20038;-83
2021/10/30 05:52:32;;;;;;;70.40;48.63;;;;;;;7.73;95.94;100095.81;5004886;28;20050;-86
2021/10/30 05:54:59;;;;;;;64.68;44.78;;;;;;;7.58;96.80;100096.44;4998794;28;20054;-85
2021/10/30 05:57:26;;;;;;;68.65;43.28;;;;;;;7.65;97.01;100086.66;4995041;28;20030;-86
2021/10/30 05:59:52;;;;;;;60.35;42.58;;;;;;;7.45;97.39;100103.00;5004275;28;20030;-84
2021/10/30 06:02:19;;;;;;;61.83;43.30;;;;;;;7.39;98.00;100100.66;5001317;28;20042;-84
2021/10/30 06:04:48;;;;;;;63.28;40.05;;;;;;;7.31;99.38;100099.22;5001519;28;20060;-85
2021/10/30 06:07:16;;;;;;;57.42;40.83;;;;;;;7.27;99.87;100097.63;5003489;28;20037;-82
2021/10/30 06:09:43;;;;;;;63.22;41.47;;;;;;;7.38;99.15;100104.16;5001280;28;20073;-82
2021/10/30 06:12:10;;;;;;;56.15;39.20;;;;;;;7.38;99.18;100107.59;5003917;28;20108;-82
2021/10/30 06:14:37;;;;;;;56.30;41.20;;;;;;;7.31;97.81;100114.78;5002589;28;20042;-84
2021/10/30 06:17:04;;;;;;;51.90;39.10;;;;;;;7.31;98.32;100117.38;5003851;28;20038;-83
2021/10/30 06:19:31;;;;;;;53.45;37.72;;;;;;;7.44;97.54;100114.28;4998824;28;20046;-84
2021/10/30 06:21:58;;;;;;;48.83;35.42;;;;;;;7.42;98.21;100113.50;5009513;28;20038;-84
2021/10/30 06:24:25;;;;;;;52.05;35.53;;;;;;;7.46;98.58;100122.88;5007032;28;20046;-84
2021/10/30 06:26:52;;;;;;;48.28;32.10;;;;;;;7.49;99.08;100133.09;5008649;28;20045;-84
2021/10/30 06:29:19;;;;;;;49.20;34.90;;;;;;;7.52;99.05;100136.44;5011641;28;20049;-84
2021/10/30 06:31:46;;;;;;;53.90;35.95;;;;;;;7.63;98.05;100130.00;5006598;28;20129;-84
2021/10/30 06:34:12;;;;;;;53.15;35.92;;;;;;;7.56;98.89;100126.75;5002734;28;20420;-85
2021/10/30 06:36:39;;;;;;;53.50;36.15;;;;;;;7.64;98.85;100124.72;5012151;28;20033;-84
2021/10/30 06:39:06;;;;;;;55.05;36.28;;;;;;;7.51;100.00;100115.72;5011656;28;20038;-85
2021/10/30 06:41:46;;;;;;;60.33;39.75;;;;;;;7.96;97.87;100114.78;5012438;28;20053;-85
2021/10/30 06:44:14;;;;;;;57.63;39.00;;;;;;;7.91;98.43;100109.78;5008683;28;20039;-86
2021/10/30 06:46:41;;;;;;;61.17;39.40;;;;;;;7.87;98.86;100103.03;5012151;28;20084;-85
2021/10/30 06:49:12;;;;;;;65.10;45.55;;;;;;;8.10;98.99;100115.91;5009916;28;20042;-85
2021/10/30 06:51:39;;;;;;;72.70;47.30;;;;;;;8.12;98.50;100121.88;5010208;28;20058;-86
2021/10/30 06:54:07;;;;;;;69.28;47.88;;;;;;;8.19;97.85;100135.44;5009919;28;20484;-82
2021/10/30 06:56:35;;;;;;;62.38;45.53;;;;;;;8.17;98.08;100139.88;5010238;28;20035;-85
2021/10/30 06:59:03;;;;;;;56.42;39.80;;;;;;;8.01;99.28;100147.44;5000733;28;20074;-89
2021/10/30 08:29:27;;;;;;;82.22;61.78;;;;;;;9.56;91.16;100182.28;5053335;27;20419;-86
2021/10/30 08:31:54;;;;;;;73.65;53.30;;;;;;;9.34;92.10;100180.66;5059371;28;20056;-90
2021/10/30 08:34:21;;;;;;;79.75;52.25;;;;;;;9.25;91.83;100183.69;5065582;28;20053;-91
2021/10/30 08:36:48;;;;;;;76.93;52.95;;;;;;;9.55;91.95;100175.38;5070285;28;20038;-90
2021/10/30 08:39:15;;;;;;;73.07;50.80;;;;;;;9.55;91.02;100168.44;5055183;28;20044;-89
2021/10/30 08:41:42;;;;;;;70.90;47.95;;;;;;;9.38;91.61;100177.03;5065265;28;20080;-90
2021/10/30 08:44:09;;;;;;;73.78;49.80;;;;;;;9.77;89.62;100178.66;5031802;28;20047;-91
2021/10/30 08:46:36;;;;;;;70.97;49.58;;;;;;;9.70;89.73;100185.09;5030629;28;20480;-91
2021/10/30 08:49:06;;;;;;;67.90;47.05;;;;;;;9.74;89.02;100176.19;5043933;28;20132;-91
2021/10/30 08:51:33;;;;;;;70.80;44.75;;;;;;;10.03;88.32;100176.56;5028162;28;20046;-88
2021/10/30 08:54:00;;;;;;;69.03;47.50;;;;;;;9.81;88.71;100179.38;5029672;28;20046;-89
2021/10/30 08:56:27;;;;;;;69.32;47.83;;;;;;;9.78;89.42;100182.94;5027607;28;20041;-89
2021/10/30 08:58:55;;;;;;;78.13;49.80;;;;;;;9.80;89.30;100173.31;5033582;28;20435;-89
2021/10/30 09:01:22;;;;;;;68.85;48.13;;;;;;;10.03;88.37;100174.81;5039990;28;20046;-89
2021/10/30 09:04:01;;;;;;;70.65;49.75;;;;;;;10.06;88.15;100174.63;5027562;28;20065;-90
2021/10/30 09:06:39;;;;;;;72.55;48.30;;;;;;;9.86;87.06;100174.78;5028329;28;20408;-90
2021/10/30 09:09:17;;;;;;;71.05;49.60;;;;;;;10.14;86.03;100174.28;5028122;28;20050;-89
2021/10/30 09:11:56;;;;;;;76.18;52.25;;;;;;;10.00;86.17;100174.94;5028702;28;20059;-89
2021/10/30 09:14:26;;;;;;;74.60;50.72;;;;;;;10.20;86.45;100171.38;5029208;28;20392;-90
2021/10/30 09:17:15;;;;;;;77.85;51.17;;;;;;;10.62;84.05;100176.22;5028503;28;20114;-90
2021/10/30 09:19:50;;;;;;;71.30;50.78;;;;;;;11.17;80.96;100181.13;5028507;28;20060;-90
2021/10/30 09:22:19;;;;;;;80.43;52.70;;;;;;;10.93;81.46;100177.25;5029194;28;20049;-90
2021/10/30 09:24:56;;;;;;;76.57;52.72;;;;;;;10.92;81.91;100185.97;5028199;28;20420;-90
2021/10/30 09:27:42;;;;;;;78.65;50.95;;;;;;;11.28;80.17;100183.16;5027737;28;20468;-89
2021/10/30 09:30:09;;;;;;;72.85;52.08;;;;;;;11.07;80.79;100179.09;5026080;28;20797;-87
2021/10/30 09:32:36;;;;;;;77.68;53.13;;;;;;;11.27;81.15;100176.28;5029228;28;20433;-94
2021/10/30 09:35:03;;;;;;;72.88;50.03;;;;;;;11.68;78.62;100168.78;5026543;28;20514;-91
2021/10/30 09:37:34;;;;;;;73.97;53.47;;;;;;;11.64;78.26;100169.03;5019375;28;20042;-91
2021/10/30 09:40:25;;;;;;;72.63;49.85;;;;;;;11.30;79.43;100176.13;5009747;28;20079;-91
2021/10/30 09:43:04;;;;;;;81.22;50.78;;;;;;;11.41;78.70;100168.56;5006556;28;20042;-92
2021/10/30 09:45:31;;;;;;;72.93;53.20;;;;;;;11.40;79.65;100159.03;5011743;28;20412;-93
2021/10/30 09:48:02;;;;;;;70.72;50.83;;;;;;;11.97;77.53;100161.94;5002844;28;20050;-92
2021/10/30 09:50:31;;;;;;;82.43;56.70;;;;;;;11.48;79.01;100164.66;4998985;28;20046;-91
2021/10/30 09:53:39;;;;;;;81.43;59.88;;;;;;;11.72;78.15;100162.47;5009476;28;20076;-90
2021/10/30 09:56:09;;;;;;;81.00;58.10;;;;;;;11.60;78.87;100163.13;5007091;28;20042;-91
2021/10/30 09:58:41;;;;;;;86.53;58.33;;;;;;;12.26;76.66;100157.66;5012432;28;20034;-94
2021/10/30 10:01:08;;;;;;;83.15;59.53;;;;;;;12.52;74.88;100150.91;5007686;28;20046;-92
2021/10/30 10:03:37;;;;;;;87.38;59.85;;;;;;;11.82;77.39;100159.38;5000281;28;20128;-91
2021/10/30 10:06:12;;;;;;;89.72;63.58;;;;;;;11.91;77.31;100157.06;5008821;28;20034;-89
2021/10/30 10:08:40;;;;;;;88.85;58.25;;;;;;;12.60;75.33;100153.06;5010796;28;20057;-86
2021/10/30 10:11:15;;;;;;;84.20;59.50;;;;;;;13.14;73.11;100149.78;5002564;28;20561;-88
2021/10/30 10:13:45;;;;;;;90.72;57.20;;;;;;;13.51;71.04;100143.94;5003251;28;20050;-85
2021/10/30 10:16:15;;;;;;;74.00;54.50;;;;;;;11.99;75.82;100151.44;5005998;28;20042;-87
2021/10/30 10:18:47;;;;;;;77.95;57.42;;;;;;;12.35;75.19;100150.22;5009483;28;20054;-84
2021/10/30 10:21:18;;;;;;;81.32;57.85;;;;;;;12.91;72.91;100145.97;5012071;28;20117;-83
2021/10/30 10:23:45;;;;;;;90.90;59.28;;;;;;;13.14;71.07;100144.56;5013339;28;20548;-82
2021/10/30 10:26:14;;;;;;;88.30;60.55;;;;;;;12.55;73.67;100149.88;5013549;28;20058;-88
2021/10/30 10:28:41;;;;;;;84.90;56.33;;;;;;;13.29;71.95;100151.47;5012256;28;20148;-86
2021/10/30 10:31:12;;;;;;;95.18;60.47;;;;;;;13.47;71.09;100152.09;5013946;28;20045;-85
2021/10/30 10:33:41;;;;;;;90.90;62.55;;;;;;;12.59;73.14;100162.69;5013257;28;20041;-84
2021/10/30 10:36:14;;;;;;;84.80;57.75;;;;;;;12.98;72.74;100155.97;5012514;28;20090;-94
2021/10/30 10:39:20;;;;;;;90.82;60.72;;;;;;;12.69;72.94;100147.28;5011828;28;20042;-87
2021/10/30 10:41:50;;;;;;;90.03;64.38;;;;;;;12.58;73.63;100136.63;5012839;28;20108;-87
2021/10/30 10:44:37;;;;;;;86.97;60.47;;;;;;;12.79;72.87;100131.88;5024557;28;20049;-87
2021/10/30 10:47:04;;;;;;;89.68;64.18;;;;;;;13.10;71.35;100136.03;5028466;28;20036;-89
2021/10/30 10:52:11;;;;;;;84.53;58.13;;;;;;;12.92;72.31;100127.56;5010266;28;20042;-88
2021/10/30 10:55:01;;;;;;;81.53;56.38;;;;;;;13.80;69.72;100120.28;5010230;28;20584;-88
2021/10/30 10:57:47;;;;;;;80.90;57.20;;;;;;;13.39;70.05;100128.19;5010838;28;20062;-87
2021/10/30 11:00:19;;;;;;;79.47;55.33;;;;;;;13.25;71.31;100132.50;5011489;28;20034;-87
2021/10/30 11:02:49;;;;;;;76.00;55.75;;;;;;;13.98;68.51;100128.72;5011623;28;20489;-90
2021/10/30 11:05:22;;;;;;;71.78;53.15;;;;;;;13.93;68.26;100126.41;5045590;28;20633;-91
2021/10/30 11:08:11;;;;;;;77.18;57.45;;;;;;;13.70;69.93;100129.69;5013120;28;20065;-89
2021/10/30 11:10:42;;;;;;;75.82;55.40;;;;;;;13.28;70.81;100121.84;5010659;28;20042;-91
2021/10/30 11:13:11;;;;;;;73.00;52.90;;;;;;;14.11;69.07;100119.94;5013505;28;20073;-92
2021/10/30 11:15:49;;;;;;;73.65;53.58;;;;;;;13.91;68.72;100120.44;5013104;28;20497;-92
2021/10/30 11:18:24;;;;;;;72.68;54.20;;;;;;;13.37;70.84;100117.81;5013327;28;20068;-93
2021/10/30 11:21:16;;;;;;;80.68;52.25;;;;;;;14.35;67.28;100112.22;5012685;28;20065;-89
2021/10/30 11:23:44;;;;;;;74.05;56.78;;;;;;;13.89;69.38;100109.19;5004802;28;20038;-90
2021/10/30 11:26:22;;;;;;;74.72;52.03;;;;;;;13.55;72.01;100095.69;5010955;28;20913;-90
2021/10/30 11:28:50;;;;;;;87.07;59.42;;;;;;;12.92;73.91;100103.19;5008504;28;20060;-92
2021/10/30 11:31:20;;;;;;;73.57;53.08;;;;;;;12.99;74.46;100102.69;4985481;28;20445;-92
2021/10/30 11:34:06;;;;;;;82.20;56.03;;;;;;;13.54;73.06;100091.38;5006208;28;20125;-87
2021/10/30 11:36:37;;;;;;;84.15;55.25;;;;;;;13.48;71.66;100097.03;5008829;28;20048;-85
2021/10/30 11:39:06;;;;;;;82.47;57.20;;;;;;;13.31;72.90;100089.38;5003107;28;20050;-89
2021/10/30 11:41:35;;;;;;;79.15;54.95;;;;;;;13.53;72.33;100086.22;5022130;28;20045;-91
2021/10/30 11:44:04;;;;;;;79.18;55.80;;;;;;;13.34;73.72;100091.81;5008740;28;20133;-90
2021/10/30 11:46:31;;;;;;;74.10;56.42;;;;;;;13.37;72.69;100086.41;5006083;28;20104;-89
2021/10/30 11:48:59;;;;;;;75.07;53.65;;;;;;;14.02;71.12;100091.72;5006338;28;20484;-88
2021/10/30 11:51:29;;;;;;;79.95;55.50;;;;;;;14.13;69.41;100083.16;5005670;28;20046;-89
2021/10/30 11:53:57;;;;;;;69.40;51.50;;;;;;;13.68;71.92;100076.53;5005859;28;20046;-88
2021/10/30 11:56:28;;;;;;;66.28;49.65;;;;;;;13.58;71.14;100085.03;5007632;28;20503;-89
2021/10/30 11:58:57;;;;;;;74.32;53.75;;;;;;;14.42;69.65;100089.03;5005143;28;20034;-90
2021/10/30 12:01:43;;;;;;;78.25;53.03;;;;;;;13.50;71.21;100087.28;5006000;28;20046;-88
2021/10/30 12:04:17;;;;;;;84.47;54.28;;;;;;;13.85;69.85;100089.41;5004642;28;20108;-88
2021/10/30 12:07:05;;;;;;;71.72;52.15;;;;;;;14.76;66.55;100081.50;5004953;28;20123;-89
2021/10/30 12:09:37;;;;;;;79.90;52.10;;;;;;;14.84;65.54;100081.78;5006342;28;20057;-87
2021/10/30 12:12:10;;;;;;;72.95;53.05;;;;;;;14.15;69.03;100078.63;5008822;28;20041;-95
2021/10/30 12:14:50;;;;;;;66.85;49.08;;;;;;;14.32;68.59;100072.22;5010272;28;20580;-95
2021/10/30 12:17:26;;;;;;;71.28;50.53;;;;;;;15.02;66.38;100067.38;5012344;28;20100;-92
2021/10/30 12:19:54;;;;;;;66.53;45.75;;;;;;;14.97;66.06;100071.25;5010537;28;20037;-91
2021/10/30 12:22:37;;;;;;;65.32;47.10;;;;;;;14.31;67.38;100067.94;5011796;28;20046;-91
2021/10/30 12:25:12;;;;;;;69.45;47.58;;;;;;;14.19;68.74;100066.16;4992775;28;20038;-92
2021/10/30 12:27:52;;;;;;;61.17;43.15;;;;;;;14.49;67.38;100077.22;5032201;28;20050;-91
2021/10/30 12:30:20;;;;;;;53.97;40.97;;;;;;;14.57;66.57;100077.50;5008848;28;20042;-92
2021/10/30 12:32:48;;;;;;;59.58;42.08;;;;;;;14.72;66.00;100070.38;5006133;28;20042;-92
2021/10/30 12:35:23;;;;;;;64.28;41.47;;;;;;;14.72;65.95;100077.41;5009935;28;20048;-89
2021/10/30 12:37:51;;;;;;;55.70;40.42;;;;;;;14.62;66.00;100082.44;5008208;28;20052;-91
2021/10/30 12:40:36;;;;;;;60.13;44.15;;;;;;;14.10;67.59;100081.56;5004646;28;20050;-96
2021/10/30 12:43:07;;;;;;;62.33;45.72;;;;;;;14.01;68.62;100089.19;5012980;28;20042;-95
2021/10/30 12:45:40;;;;;;;57.83;42.97;;;;;;;13.70;69.52;100090.41;5013712;28;20050;-94
2021/10/30 12:48:37;;;;;;;60.25;46.00;;;;;;;13.66;69.90;100089.75;5011531;28;20100;-93
2021/10/30 12:51:11;;;;;;;63.35;45.70;;;;;;;13.96;68.91;100086.91;5013503;28;20049;-91
2021/10/30 12:53:38;;;;;;;69.43;48.45;;;;;;;13.73;69.27;100088.41;5012961;28;20046;-94
2021/10/30 12:56:19;;;;;;;61.90;46.55;;;;;;;13.78;68.95;100095.97;5016251;28;20041;-93